Latest Weather Observations for Wadeye (Port Keats)

IDD60801

Issued at 6:03 pm CST Saturday 20 December 2014 (issued every 30 minutes, with the page automatically refreshed every 10 minutes)

About weather observations | Map of weather stations | Latest weather observations for NT | Other Formats
Station Details ID: 014948 Name: PORT KEATS AIRPORT Lat: -14.25 Lon: 129.53 Height: 28.0 m
Data from the previous 72 hours. | See also: Recent months at Wadeye (Port Keats)
Date/Time
CST
Temp
°C
App
Temp
°C
Dew
Point
Rel
Hum
%
Delta-T
°C
Wind Press
QNH
hPa
Press
MSL
hPa
Rain
since 9 am
mm
Dir
 
Spd
km/h
Gust
km/h
Spd
kts
Gust
kts
20/06:00pm 31.6 35.4 23.4 61 5.7 W 9 15 5 8 1004.8 1004.5 0.2
20/05:30pm 32.2 35.1 23.2 59 6.2 WSW 13 22 7 12 1004.7 1004.4 0.2
20/05:00pm 32.2 34.2 22.9 58 6.4 W 17 26 9 14 1004.8 1004.5 0.2
20/04:30pm 32.3 33.6 22.7 57 6.6 WSW 20 32 11 17 1004.9 1004.6 0.2
20/04:00pm 32.2 34.4 24.3 63 5.5 W 20 32 11 17 1005.4 1005.1 0.2
20/03:30pm 32.0 33.8 23.5 60 5.9 W 20 30 11 16 1005.6 1005.3 0.2
20/03:00pm 32.7 35.1 24.2 61 6.0 W 19 28 10 15 1005.8 1005.5 0.2
20/02:30pm 33.1 36.6 25.4 64 5.5 W 17 24 9 13 1006.0 1005.7 0.2
20/02:00pm 33.5 36.6 24.1 58 6.6 W 15 26 8 14 1006.3 1006.0 0.2
20/01:30pm 35.2 36.4 17.4 34 11.5 S 7 13 4 7 1006.8 1006.6 0.2
20/01:00pm 34.6 36.7 20.2 43 9.6 E 9 15 5 8 1007.2 1007.0 0.2
20/12:30pm 34.0 36.7 21.4 47 8.6 ESE 9 15 5 8 1007.4 1007.2 0.2
20/12:00pm 32.2 34.4 22.6 57 6.6 E 15 20 8 11 1008.0 1007.8 0.2
20/11:30am 31.6 34.5 23.9 63 5.4 ENE 15 19 8 10 1008.2 1008.0 0.2
20/11:00am 30.5 33.5 23.4 66 4.9 ENE 13 17 7 9 1008.7 1008.5 0.2
20/10:30am 29.7 33.6 23.6 69 4.2 ESE 9 11 5 6 1008.9 1008.7 0.0
20/10:00am 28.8 32.9 23.9 75 3.4 ENE 9 13 5 7 1009.4 1009.2 0.0
20/09:30am 28.1 31.2 23.5 76 3.2 ENE 13 17 7 9 1009.7 1009.5 0.0
20/09:00am 27.5 32.1 24.1 82 2.4 E 7 11 4 6 1009.3 1009.1 24.2
20/08:30am 26.4 31.0 24.1 87 1.6 E 7 11 4 6 1010.1 1009.9 24.2
20/08:00am 26.2 30.9 23.9 87 1.6 NE 6 9 3 5 1010.5 1010.3 24.2
20/07:30am 26.2 30.5 23.7 86 1.7 NW 7 11 4 6 1010.4 1010.2 24.2
20/07:00am 25.9 30.1 23.4 86 1.7 SW 7 13 4 7 1010.8 1010.6 24.2
20/06:30am 26.1 29.7 23.0 83 2.1 SSE 9 13 5 7 1010.3 1010.1 24.2
20/06:00am 26.0 30.1 24.0 89 1.4 ESE 9 13 5 7 1010.2 1010.0 24.2
20/05:30am 25.6 30.1 24.0 91 1.1 ENE 7 9 4 5 1009.3 1009.1 24.2
20/05:00am 25.5 29.1 24.3 93 0.8 ENE 13 17 7 9 1009.8 1009.6 24.2
20/04:30am 25.5 30.6 24.1 92 1.0 ENE 4 7 2 4 1009.1 1008.9 24.2
20/04:00am 25.7 31.3 24.3 92 1.0 S 2 9 1 5 1008.7 1008.5 24.2
20/03:30am 25.3 30.0 23.9 92 1.0 SW 6 7 3 4 1008.6 1008.4 24.2
20/03:00am 25.0 29.1 24.0 94 0.7 SW 9 11 5 6 1008.5 1008.3 24.2
20/02:30am 24.7 29.1 23.8 95 0.6 WSW 7 11 4 6 1009.1 1008.9 24.2
20/02:00am 24.6 29.1 23.7 95 0.6 WSW 6 13 3 7 1009.2 1009.0 24.2
20/01:30am 24.7 28.7 23.7 94 0.7 W 9 13 5 7 1009.5 1009.3 24.0
20/01:00am 24.8 29.5 23.4 92 1.0 SSW 4 9 2 5 1009.6 1009.4 24.0
20/12:30am 24.7 28.3 23.7 94 0.7 SE 11 13 6 7 1010.2 1010.0 24.0
20/12:00am 24.2 26.8 23.3 95 0.6 S 15 20 8 11 1011.0 1010.8 23.8
 
Date/Time
CST
Temp
°C
App
Temp
°C
Dew
Point
Rel
Hum
%
Delta-T
°C
Wind Press
QNH
hPa
Press
MSL
hPa
Rain
since 9 am
mm
Dir
 
Spd
km/h
Gust
km/h
Spd
kts
Gust
kts
19/11:30pm 24.2 26.1 22.8 92 0.9 SSE 17 28 9 15 1011.9 1011.7 15.2
19/11:00pm 25.4 26.5 22.3 83 2.1 SSE 20 41 11 22 1011.3 1011.1 0.0
19/10:37pm 28.3 27.1 20.8 63 5.0 SSE 28 48 15 26 1010.4 1010.2 0.0
19/10:30pm 29.9 34.1 24.1 71 4.0 SW 9 39 5 21 1010.7 1010.5 0.0
19/10:00pm 30.5 37.1 25.3 74 3.7 CALM 0 0 0 0 1009.6 1009.4 0.0
19/09:30pm 30.6 36.2 25.4 74 3.7 WNW 6 9 3 5 1008.7 1008.5 0.0
19/09:00pm 30.9 36.4 25.3 72 4.0 NW 6 11 3 6 1008.6 1008.4 0.0
19/08:30pm 31.1 36.4 25.2 71 4.2 NNW 7 11 4 6 1007.8 1007.6 0.0
19/08:00pm 31.4 36.0 24.8 68 4.6 N 9 13 5 7 1008.0 1007.8 0.0
19/07:30pm 31.6 35.8 24.7 67 4.9 NNW 11 15 6 8 1008.1 1007.9 0.0
19/07:00pm 31.7 36.0 24.3 65 5.2 NNW 9 15 5 8 1007.4 1007.2 0.0
19/06:30pm 31.6 36.5 25.2 69 4.5 NW 9 13 5 7 1006.5 1006.3 0.0
19/06:00pm 31.8 36.0 24.7 66 5.0 NNW 11 15 6 8 1006.6 1006.4 0.0
19/05:30pm 31.6 36.5 24.7 67 4.9 WNW 7 15 4 8 1005.4 1005.1 0.0
19/05:00pm 31.8 36.9 24.7 66 5.0 W 6 11 3 6 1005.6 1005.3 0.0
19/04:30pm 32.3 37.0 24.3 62 5.6 WNW 7 13 4 7 1006.1 1005.8 0.0
19/04:00pm 32.8 36.4 24.3 61 6.0 WNW 13 20 7 11 1006.2 1005.9 0.0
19/03:30pm 33.7 37.6 24.3 58 6.6 W 11 20 6 11 1006.4 1006.1 0.0
19/03:00pm 34.8 38.8 25.0 56 7.0 NW 13 20 7 11 1007.3 1007.1 0.0
19/02:30pm 34.8 38.8 25.0 56 7.0 WNW 13 20 7 11 1007.2 1007.0 0.0
19/02:00pm 35.1 39.5 25.6 58 6.8 W 13 19 7 10 1008.1 1007.9 0.0
19/01:30pm 34.3 40.4 26.5 64 5.6 WNW 7 13 4 7 1008.6 1008.4 0.0
19/01:00pm 34.3 38.5 24.8 57 6.7 W 11 19 6 10 1008.9 1008.7 0.0
19/12:30pm 34.7 40.0 25.2 57 6.8 WNW 7 15 4 8 1009.1 1008.9 0.0
19/12:00pm 35.3 40.7 23.9 51 8.0 NE 2 13 1 7 1009.5 1009.3 0.0
19/11:30am 34.6 39.4 24.5 55 7.1 N 7 13 4 7 1009.9 1009.7 0.0
19/11:00am 34.3 38.9 22.4 50 8.2 E 2 7 1 4 1010.1 1009.9 0.0
19/10:30am 32.9 37.0 23.0 56 6.8 N 6 9 3 5 1010.4 1010.2 0.0
19/10:00am 32.8 38.1 23.7 58 6.3 SW 2 7 1 4 1010.4 1010.2 0.0
19/09:30am 32.8 37.3 24.0 60 6.2 W 7 11 4 6 1010.4 1010.2 0.0
19/09:00am 32.6 39.1 25.7 67 4.9 SW 2 6 1 3 1010.4 1010.2 0.0
19/08:30am 31.3 37.6 25.9 73 3.9 S 4 7 2 4 1010.4 1010.2 0.0
19/08:00am 30.1 37.1 25.8 78 3.1 CALM 0 6 0 3 1010.1 1009.9 0.0
19/07:30am 29.1 34.9 25.7 82 2.4 S 6 9 3 5 1009.6 1009.4 0.0
19/07:00am 28.5 34.6 25.7 85 2.0 S 4 7 2 4 1009.3 1009.1 0.0
19/06:30am 27.6 34.1 25.6 89 1.4 SSE 2 7 1 4 1008.7 1008.5 0.0
19/06:00am 27.5 34.1 25.3 88 1.5 CALM 0 0 0 0 1008.3 1008.1 0.0
19/05:30am 28.0 35.0 25.8 88 1.6 CALM 0 0 0 0 1008.2 1008.0 0.0
19/05:00am 28.1 35.0 25.7 87 1.7 CALM 0 0 0 0 1007.8 1007.6 0.0
19/04:30am 27.9 34.7 25.5 87 1.7 CALM 0 0 0 0 1007.8 1007.6 0.0
19/04:00am 27.7 34.3 25.3 87 1.7 CALM 0 0 0 0 1007.7 1007.5 0.0
19/03:30am 28.5 35.3 25.5 84 2.1 CALM 0 0 0 0 1007.9 1007.7 0.0
19/03:00am 28.3 35.1 25.5 85 2.0 CALM 0 0 0 0 1008.0 1007.8 0.0
19/02:30am 28.2 34.9 25.4 85 2.0 CALM 0 0 0 0 1008.3 1008.1 0.0
19/02:00am 28.6 35.3 25.4 83 2.3 CALM 0 0 0 0 1008.5 1008.3 0.0
19/01:30am 28.5 35.0 25.1 82 2.4 CALM 0 0 0 0 1008.8 1008.6 0.0
19/01:00am 28.3 34.9 25.3 84 2.1 CALM 0 0 0 0 1009.4 1009.2 0.0
19/12:30am 28.4 35.0 25.2 83 2.3 CALM 0 6 0 3 1009.6 1009.4 0.0
19/12:00am 28.3 34.8 25.1 83 2.2 CALM 0 0 0 0 1009.8 1009.6 0.0
 
Date/Time
CST
Temp
°C
App
Temp
°C
Dew
Point
Rel
Hum
%
Delta-T
°C
Wind Press
QNH
hPa
Press
MSL
hPa
Rain
since 9 am
mm
Dir
 
Spd
km/h
Gust
km/h
Spd
kts
Gust
kts
18/11:30pm 29.1 35.7 25.3 80 2.7 CALM 0 0 0 0 1009.7 1009.5 0.0
18/11:00pm 28.7 33.9 25.1 81 2.5 SSW 7 9 4 5 1009.5 1009.3 0.0
18/10:30pm 29.5 35.8 24.8 76 3.3 CALM 0 0 0 0 1008.9 1008.7 0.0
18/10:00pm 30.1 36.4 24.7 73 3.8 CALM 0 6 0 3 1008.5 1008.3 0.0
18/09:30pm 30.3 35.2 24.4 70 4.1 NW 6 7 3 4 1008.3 1008.1 0.0
18/09:00pm 30.7 35.6 24.6 70 4.3 N 7 9 4 5 1007.9 1007.7 0.0
18/08:30pm 30.6 35.6 24.5 70 4.3 N 6 9 3 5 1007.7 1007.5 0.0
18/08:00pm 30.9 35.6 24.3 68 4.6 NNW 7 9 4 5 1007.3 1007.1 0.0
18/07:30pm 30.6 35.3 24.0 68 4.6 W 6 9 3 5 1007.0 1006.8 0.0
18/07:00pm 31.3 35.8 23.9 64 5.1 NW 7 9 4 5 1007.6 1007.4 0.0
18/06:30pm 31.3 35.4 23.9 64 5.2 WNW 9 13 5 7 1007.2 1007.0 0.0
18/06:00pm 31.6 36.0 24.5 66 5.0 NW 9 15 5 8 1006.7 1006.5 0.0
18/05:30pm 31.4 35.3 24.3 66 5.0 NW 11 15 6 8 1006.2 1005.9 0.0
18/05:00pm 31.2 35.0 24.1 66 4.9 NW 11 15 6 8 1005.6 1005.3 0.0
18/04:30pm 31.5 36.3 24.1 65 5.2 WNW 6 13 3 7 1006.2 1005.9 0.0
18/04:00pm 31.8 35.5 23.3 60 5.9 W 9 15 5 8 1006.7 1006.5 0.0
18/03:30pm 32.7 35.7 23.3 57 6.5 W 13 20 7 11 1006.4 1006.1 0.0
18/03:00pm 34.4 36.5 23.7 53 7.5 NW 19 26 10 14 1006.6 1006.4 0.0
18/02:30pm 34.5 37.2 24.1 54 7.3 WNW 17 26 9 14 1007.1 1006.9 0.0
18/02:00pm 35.3 38.5 24.3 53 7.8 NW 15 28 8 15 1007.4 1007.2 0.0
18/01:30pm 34.6 38.5 24.8 56 6.9 WNW 13 19 7 10 1008.0 1007.8 0.0
18/01:00pm 34.5 37.6 23.5 52 7.7 NW 13 17 7 9 1008.5 1008.3 0.0
18/12:30pm 34.6 37.2 23.3 52 7.9 NW 15 20 8 11 1008.7 1008.5 0.0
18/12:00pm 34.7 38.6 24.3 54 7.3 W 11 20 6 11 1009.1 1008.9 0.0
18/11:30am 34.8 38.6 24.7 55 7.2 WNW 13 19 7 10 1009.4 1009.2 0.0
18/11:00am 33.6 37.7 24.5 59 6.4 WNW 11 22 6 12 1009.9 1009.7 0.0
18/10:30am 32.9 36.3 24.6 61 5.8 WNW 15 20 8 11 1010.0 1009.8 0.0
18/10:00am 32.5 36.9 25.6 67 4.9 W 13 20 7 11 1009.8 1009.6 0.0
18/09:30am 32.5 36.7 25.3 66 5.1 W 13 17 7 9 1009.4 1009.2 0.0
18/09:00am 31.7 36.3 25.3 69 4.5 W 11 17 6 9 1009.1 1008.9 0.0
18/08:30am 31.7 36.3 25.3 69 4.5 W 11 15 6 8 1008.7 1008.5 0.0
18/08:00am 31.0 36.5 25.6 73 3.8 W 7 13 4 7 1008.5 1008.3 0.0
18/07:30am 29.5 36.3 25.5 79 2.8 CALM 0 0 0 0 1008.0 1007.8 0.0
18/07:00am 28.6 35.6 25.8 85 2.0 CALM 0 0 0 0 1007.7 1007.5 0.0
18/06:30am 28.2 35.0 25.6 86 1.8 CALM 0 0 0 0 1007.2 1007.0 0.0
18/06:00am 28.2 35.0 25.6 86 1.8 CALM 0 0 0 0 1006.8 1006.6 0.0
18/05:30am 28.2 34.9 25.4 85 2.0 CALM 0 0 0 0 1006.5 1006.3 0.0
18/05:00am 29.0 34.9 25.4 81 2.5 WNW 4 7 2 4 1006.3 1006.0 0.0
18/04:30am 29.3 35.9 25.3 79 2.8 CALM 0 0 0 0 1006.2 1005.9 0.0
18/04:00am 29.4 34.7 24.9 77 3.2 WNW 6 7 3 4 1006.1 1005.8 0.0
18/03:30am 29.9 35.2 25.2 76 3.3 NNW 7 9 4 5 1006.0 1005.7 0.0
18/03:00am 29.8 34.7 25.3 77 3.2 NNW 9 11 5 6 1006.0 1005.7 0.0
18/02:30am 30.0 35.3 25.3 76 3.3 NW 7 9 4 5 1006.0 1005.7 0.0
18/02:00am 29.8 35.2 25.1 76 3.3 NW 6 9 3 5 1005.9 1005.6 0.0
18/01:30am 29.9 35.3 25.2 76 3.3 NW 6 7 3 4 1006.0 1005.7 0.0
18/01:00am 29.6 34.8 25.1 77 3.2 W 7 11 4 6 1006.1 1005.8 0.0
18/12:30am 29.5 34.8 25.3 78 3.0 WSW 7 11 4 6 1006.4 1006.1 0.0
18/12:00am 30.0 35.3 25.3 76 3.3 NW 7 11 4 6 1007.0 1006.8 0.0
 
Date/Time
CST
Temp
°C
App
Temp
°C
Dew
Point
Rel
Hum
%
Delta-T
°C
Wind Press
QNH
hPa
Press
MSL
hPa
Rain
since 9 am
mm
Dir
 
Spd
km/h
Gust
km/h
Spd
kts
Gust
kts
17/11:30pm 30.3 34.3 25.1 73 3.7 N 13 15 7 8 1007.1 1006.9 0.0
17/11:00pm 30.2 35.1 25.3 75 3.5 NNW 9 13 5 7 1007.0 1006.8 0.0
17/10:30pm 29.8 35.3 25.3 77 3.2 WNW 6 9 3 5 1007.1 1006.9 0.0
17/10:00pm 30.5 35.4 25.3 74 3.7 NNW 9 11 5 6 1007.4 1007.2 0.0
17/09:30pm 30.3 35.5 25.1 73 3.7 WNW 7 13 4 7 1007.6 1007.4 0.0
17/09:00pm 30.7 35.5 25.1 72 4.0 N 9 11 5 6 1007.7 1007.5 0.0
17/08:30pm 30.8 35.5 24.9 71 4.2 NNW 9 13 5 7 1007.1 1006.9 0.0
17/08:00pm 30.9 35.6 25.0 71 4.2 NW 9 11 5 6 1006.6 1006.4 0.0
17/07:30pm 31.0 35.3 24.9 70 4.3 NW 11 15 6 8 1005.7 1005.4 0.0
17/07:00pm 31.4 36.8 24.5 67 4.8 E 4 7 2 4 1006.4 1006.1 0.0
17/06:30pm 31.5 36.0 24.6 67 4.9 NW 9 13 5 7 1005.8 1005.5 0.0

Other Formats:

Comma delimited format used in spreadsheet applications
http://www.bom.gov.au/fwo/IDD60801/IDD60801.95111.axf

JavaScript Object Notation format (JSON) in row-major order
http://www.bom.gov.au/fwo/IDD60801/IDD60801.95111.json